createdAt,value
2022-07-28T00:02:03.639Z,36.10
2022-07-28T00:04:30.428Z,36.20
2022-07-28T00:06:57.220Z,36.10
2022-07-28T00:09:24.193Z,36.20
2022-07-28T00:11:54.575Z,35.90
2022-07-28T00:14:22.009Z,36.20
2022-07-28T00:16:48.816Z,36.20
2022-07-28T00:19:15.553Z,36.20
2022-07-28T00:21:42.267Z,36.00
2022-07-28T00:24:09.002Z,36.00
2022-07-28T00:26:35.892Z,36.00
2022-07-28T00:29:04.073Z,36.10
2022-07-28T00:31:30.802Z,36.30
2022-07-28T00:33:59.891Z,36.20
2022-07-28T00:36:26.650Z,36.10
2022-07-28T00:38:53.439Z,36.40
2022-07-28T00:41:20.711Z,36.60
2022-07-28T00:43:49.260Z,36.60
2022-07-28T00:46:20.016Z,36.40
2022-07-28T00:48:49.964Z,36.70
2022-07-28T00:51:18.401Z,36.90
2022-07-28T00:53:46.259Z,37.30
2022-07-28T00:56:14.208Z,37.80
2022-07-28T00:58:41.275Z,37.10
2022-07-28T01:01:09.848Z,36.60
2022-07-28T01:03:40.352Z,36.60
2022-07-28T01:06:16.269Z,36.50
2022-07-28T01:08:55.990Z,36.70
2022-07-28T01:11:29.775Z,36.90
2022-07-28T01:14:01.207Z,36.90
2022-07-28T01:16:28.688Z,36.70
2022-07-28T01:19:04.191Z,36.60
2022-07-28T01:21:35.025Z,37.20
2022-07-28T01:24:10.730Z,37.00
2022-07-28T01:26:54.827Z,37.20
2022-07-28T01:29:36.497Z,36.90
2022-07-28T01:32:06.902Z,37.20
2022-07-28T01:34:36.559Z,37.00
2022-07-28T01:37:10.100Z,37.30
2022-07-28T01:39:39.732Z,37.40
2022-07-28T01:42:08.785Z,37.00
2022-07-28T01:44:41.043Z,37.00
2022-07-28T01:47:11.794Z,37.40
2022-07-28T01:49:39.788Z,37.50
2022-07-28T01:52:09.133Z,37.20
2022-07-28T01:54:39.088Z,37.40
2022-07-28T01:57:09.648Z,37.10
2022-07-28T01:59:39.707Z,37.30
2022-07-28T02:02:07.708Z,37.50
2022-07-28T02:04:39.253Z,37.30
2022-07-28T02:07:08.757Z,37.30
2022-07-28T02:09:36.348Z,37.00
2022-07-28T02:12:04.537Z,37.00
2022-07-28T02:14:33.066Z,36.90
2022-07-28T02:17:09.538Z,37.00
2022-07-28T02:19:39.584Z,37.30
2022-07-28T02:22:08.000Z,37.20
2022-07-28T02:24:35.822Z,37.50
2022-07-28T02:27:08.775Z,37.60
2022-07-28T02:29:50.801Z,37.60
2022-07-28T02:32:28.102Z,37.60
2022-07-28T02:35:09.379Z,37.70
2022-07-28T02:37:38.874Z,37.70
2022-07-28T02:40:09.711Z,37.80
2022-07-28T02:42:37.895Z,37.90
2022-07-28T02:45:08.530Z,37.70
2022-07-28T02:47:40.178Z,37.90
2022-07-28T02:50:10.669Z,38.10
2022-07-28T02:52:38.490Z,38.20
2022-07-28T02:55:06.535Z,38.40
2022-07-28T02:57:34.211Z,37.50
2022-07-28T03:00:01.926Z,37.50
2022-07-28T03:02:29.019Z,37.40
2022-07-28T03:04:55.811Z,37.50
2022-07-28T03:07:24.687Z,37.60
2022-07-28T03:09:52.097Z,37.80
2022-07-28T03:12:18.794Z,37.60
2022-07-28T03:14:45.748Z,37.70
2022-07-28T03:17:12.540Z,37.60
2022-07-28T03:19:39.498Z,37.90
2022-07-28T03:22:06.812Z,38.00
2022-07-28T03:24:41.863Z,38.00
2022-07-28T03:27:15.170Z,37.70
2022-07-28T03:29:43.833Z,37.90
2022-07-28T03:32:11.106Z,37.60
2022-07-28T03:34:37.896Z,37.40
2022-07-28T03:37:08.688Z,37.50
2022-07-28T03:39:42.586Z,37.70
2022-07-28T03:42:10.288Z,37.70
2022-07-28T03:44:37.826Z,37.70
2022-07-28T03:47:04.752Z,37.70
2022-07-28T03:49:31.450Z,37.70
2022-07-28T03:51:58.158Z,37.60
2022-07-28T03:54:24.871Z,37.70
2022-07-28T03:56:52.919Z,38.20
2022-07-28T03:59:19.596Z,38.20
2022-07-28T04:01:46.353Z,38.10
2022-07-28T04:04:13.346Z,38.30
2022-07-28T04:06:40.333Z,38.00
2022-07-28T04:09:07.070Z,37.90
2022-07-28T04:11:33.742Z,37.80
2022-07-28T04:14:01.770Z,38.30
2022-07-28T04:16:28.587Z,38.60
2022-07-28T04:18:55.294Z,38.90
2022-07-28T04:21:21.971Z,38.50
2022-07-28T04:23:48.784Z,38.30
2022-07-28T04:26:15.552Z,38.50
2022-07-28T04:28:42.246Z,38.60
2022-07-28T04:31:10.446Z,38.80
2022-07-28T04:33:37.347Z,39.40
2022-07-28T04:36:04.538Z,39.40
2022-07-28T04:38:31.265Z,39.80
2022-07-28T04:40:57.997Z,40.10
2022-07-28T04:43:24.661Z,40.00
2022-07-28T04:45:54.134Z,40.60
2022-07-28T04:48:23.150Z,41.70
2022-07-28T04:50:50.472Z,42.60
2022-07-28T04:53:17.225Z,43.10
2022-07-28T04:55:43.934Z,43.50
2022-07-28T04:58:10.877Z,43.60
2022-07-28T05:00:37.845Z,43.80
2022-07-28T05:03:04.660Z,44.70
2022-07-28T05:05:32.679Z,44.80
2022-07-28T05:07:59.341Z,44.50
2022-07-28T05:10:26.217Z,43.00
2022-07-28T05:12:52.946Z,42.00
2022-07-28T05:15:19.895Z,43.00
2022-07-28T05:17:46.640Z,43.70
2022-07-28T05:20:13.950Z,43.30
2022-07-28T05:22:47.270Z,43.30
2022-07-28T05:25:15.753Z,43.80
2022-07-28T05:27:42.503Z,43.70
2022-07-28T05:30:10.188Z,44.40
2022-07-28T05:32:36.882Z,44.50
2022-07-28T05:35:03.907Z,44.10
2022-07-28T05:37:32.724Z,44.60
2022-07-28T05:40:02.531Z,44.70
2022-07-28T05:42:29.305Z,44.20
2022-07-28T05:44:56.028Z,43.70
2022-07-28T05:47:22.702Z,44.00
2022-07-28T05:49:49.407Z,42.70
2022-07-28T05:52:16.114Z,41.60
2022-07-28T05:54:42.839Z,43.00
2022-07-28T05:57:10.861Z,43.50
2022-07-28T05:59:42.436Z,43.40
2022-07-28T06:02:11.025Z,43.70
2022-07-28T06:04:37.809Z,43.20
2022-07-28T06:07:04.627Z,43.20
2022-07-28T06:09:31.342Z,43.10
2022-07-28T06:11:58.087Z,42.40
2022-07-28T06:14:26.213Z,42.40
2022-07-28T06:16:53.071Z,42.40
2022-07-28T06:19:20.179Z,42.10
2022-07-28T06:21:47.158Z,42.20
2022-07-28T06:24:14.251Z,42.60
2022-07-28T06:26:44.717Z,41.80
2022-07-28T06:29:12.033Z,41.90
2022-07-28T06:31:40.255Z,41.50
2022-07-28T06:34:07.149Z,40.90
2022-07-28T06:36:33.925Z,40.70
2022-07-28T06:39:01.083Z,39.40
2022-07-28T06:41:28.174Z,39.40
2022-07-28T06:43:55.016Z,38.90
2022-07-28T06:46:21.983Z,39.00
2022-07-28T06:48:50.269Z,39.10
2022-07-28T06:51:17.163Z,39.30
2022-07-28T06:53:43.933Z,39.20
2022-07-28T06:56:15.679Z,39.30
2022-07-28T06:58:43.987Z,39.20
2022-07-28T07:01:14.082Z,40.10
2022-07-28T07:03:41.368Z,39.70
2022-07-28T07:06:09.839Z,39.30
2022-07-28T07:08:36.736Z,40.10
2022-07-28T07:11:03.594Z,39.10
2022-07-28T07:13:30.413Z,39.40
2022-07-28T07:15:57.218Z,39.10
2022-07-28T07:18:24.049Z,39.40
2022-07-28T07:20:50.766Z,39.30
2022-07-28T07:23:18.944Z,39.60
2022-07-28T07:25:45.662Z,39.20
2022-07-28T07:28:12.354Z,39.00
2022-07-28T07:30:39.088Z,38.70
2022-07-28T07:33:07.014Z,38.90
2022-07-28T07:35:37.096Z,38.40
2022-07-28T07:38:03.965Z,38.60
2022-07-28T07:40:32.359Z,38.20
2022-07-28T07:42:59.191Z,38.00
2022-07-28T07:45:26.257Z,37.90
2022-07-28T07:47:53.006Z,38.00
2022-07-28T07:50:19.806Z,38.60
2022-07-28T07:52:46.566Z,38.10
2022-07-28T07:55:13.281Z,38.10
2022-07-28T07:57:41.999Z,37.90
2022-07-28T08:00:28.625Z,38.00
2022-07-28T08:02:56.387Z,37.80
2022-07-28T08:05:35.742Z,37.50
2022-07-28T08:08:03.896Z,37.70
2022-07-28T08:10:30.690Z,37.50
2022-07-28T08:12:58.781Z,37.40
2022-07-28T08:15:25.710Z,36.50
2022-07-28T08:17:52.913Z,37.20
2022-07-28T08:20:19.772Z,37.20
2022-07-28T08:22:50.230Z,37.20
2022-07-28T08:25:17.256Z,36.70
2022-07-28T08:27:44.036Z,36.60
2022-07-28T08:30:13.224Z,36.70
2022-07-28T08:32:41.429Z,36.10
2022-07-28T08:35:31.841Z,36.10
2022-07-28T08:37:55.625Z,36.10
2022-07-28T08:40:27.385Z,36.30
2022-07-28T08:43:01.164Z,35.90
2022-07-28T08:45:32.522Z,35.90
2022-07-28T08:48:08.295Z,35.50
2022-07-28T08:50:37.616Z,35.70
2022-07-28T08:53:06.249Z,34.00
2022-07-28T08:55:35.576Z,33.50
2022-07-28T08:58:03.407Z,34.60
2022-07-28T09:00:31.730Z,34.20
2022-07-28T09:02:59.729Z,34.00
2022-07-28T09:05:26.696Z,34.00
2022-07-28T09:07:55.209Z,33.80
2022-07-28T09:10:22.924Z,33.90
2022-07-28T09:12:49.649Z,33.00
2022-07-28T09:15:16.388Z,33.40
2022-07-28T09:17:44.712Z,32.40
2022-07-28T09:20:12.374Z,31.40
2022-07-28T09:22:55.228Z,31.90
2022-07-28T09:25:22.224Z,32.50
2022-07-28T09:27:49.001Z,31.70
2022-07-28T09:30:15.736Z,32.70
2022-07-28T09:32:43.828Z,32.50
2022-07-28T09:35:18.700Z,32.00
2022-07-28T09:37:45.746Z,31.70
2022-07-28T09:40:13.880Z,30.80
2022-07-28T09:42:46.177Z,31.10
2022-07-28T09:45:22.791Z,31.40
2022-07-28T09:48:09.063Z,31.00
2022-07-28T09:50:36.009Z,30.00
2022-07-28T09:53:20.554Z,29.90
2022-07-28T09:55:56.545Z,30.70
2022-07-28T09:58:23.385Z,30.80
2022-07-28T10:01:03.391Z,30.30
2022-07-28T10:03:32.020Z,31.40
2022-07-28T10:05:58.976Z,31.80
2022-07-28T10:08:43.879Z,30.40
2022-07-28T10:11:11.795Z,30.20
2022-07-28T10:13:52.540Z,31.20
2022-07-28T10:16:19.901Z,31.70
2022-07-28T10:18:48.634Z,31.30
2022-07-28T10:21:17.240Z,30.00
2022-07-28T10:23:47.290Z,30.60
2022-07-28T10:26:15.619Z,31.00
2022-07-28T10:28:47.368Z,31.30
2022-07-28T10:31:18.584Z,31.20
2022-07-28T10:33:50.613Z,31.10
2022-07-28T10:36:22.527Z,30.70
2022-07-28T10:38:50.157Z,30.90
2022-07-28T10:41:19.038Z,29.50
2022-07-28T10:43:47.890Z,29.10
2022-07-28T10:46:16.843Z,28.50
2022-07-28T10:48:44.373Z,30.00
2022-07-28T10:51:13.074Z,29.70
2022-07-28T10:53:46.928Z,29.60
2022-07-28T10:56:19.321Z,28.40
2022-07-28T10:58:55.758Z,27.40
2022-07-28T11:01:51.905Z,27.20
2022-07-28T11:04:51.062Z,28.80
2022-07-28T11:07:19.440Z,28.90
2022-07-28T11:09:46.930Z,29.20
2022-07-28T11:12:13.863Z,28.50
2022-07-28T11:14:41.143Z,27.40
2022-07-28T11:17:23.960Z,27.40
2022-07-28T11:22:45.776Z,27.80
2022-07-28T11:25:20.565Z,27.10
2022-07-28T11:27:59.827Z,28.40
2022-07-28T11:30:52.736Z,26.60
2022-07-28T11:33:21.088Z,27.90
2022-07-28T11:35:56.077Z,27.70
2022-07-28T11:38:24.653Z,27.50
2022-07-28T11:40:53.619Z,27.90
2022-07-28T11:43:36.332Z,27.50
2022-07-28T11:46:35.055Z,27.20
2022-07-28T11:49:24.873Z,28.00
2022-07-28T11:52:22.734Z,27.70
2022-07-28T11:54:59.654Z,27.50
2022-07-28T11:57:27.911Z,27.50
2022-07-28T12:00:00.283Z,26.70
2022-07-28T12:02:32.302Z,27.60
2022-07-28T12:05:05.767Z,27.70
2022-07-28T12:07:38.712Z,27.60
2022-07-28T12:13:26.309Z,27.80
2022-07-28T12:15:53.045Z,27.10
2022-07-28T12:18:19.836Z,27.40
2022-07-28T12:20:48.561Z,25.30
2022-07-28T12:23:15.852Z,27.40
2022-07-28T12:25:44.996Z,27.40
2022-07-28T12:28:16.264Z,26.20
2022-07-28T12:30:45.225Z,26.30
2022-07-28T12:33:26.199Z,26.50
2022-07-28T12:35:59.009Z,26.70
2022-07-28T12:38:27.593Z,26.00
2022-07-28T12:40:55.807Z,25.20
2022-07-28T12:43:24.665Z,26.20
2022-07-28T12:45:51.900Z,25.90
2022-07-28T12:48:19.071Z,25.90
2022-07-28T12:50:46.743Z,24.90
2022-07-28T12:53:14.663Z,26.20
2022-07-28T12:55:42.601Z,27.40
2022-07-28T12:58:22.084Z,26.60
2022-07-28T13:00:51.019Z,25.80
2022-07-28T13:03:22.744Z,25.90
2022-07-28T13:05:49.653Z,26.30
2022-07-28T13:08:16.978Z,26.70
2022-07-28T13:10:48.446Z,26.00
2022-07-28T13:13:20.345Z,23.80
2022-07-28T13:16:11.182Z,24.60
2022-07-28T13:18:41.529Z,25.00
2022-07-28T13:21:08.494Z,25.50
2022-07-28T13:23:35.253Z,25.30
2022-07-28T13:26:02.028Z,24.50
2022-07-28T13:28:30.212Z,25.00
2022-07-28T13:30:56.964Z,23.60
2022-07-28T13:33:23.945Z,23.50
2022-07-28T13:35:51.812Z,25.60
2022-07-28T13:38:18.611Z,25.50
2022-07-28T13:40:45.791Z,23.10
2022-07-28T13:43:12.633Z,26.00
2022-07-28T13:45:41.956Z,26.20
2022-07-28T13:48:09.472Z,24.30
2022-07-28T13:50:36.215Z,25.00
2022-07-28T13:53:02.979Z,23.30
2022-07-28T13:55:29.779Z,25.40
2022-07-28T13:57:56.806Z,25.90
2022-07-28T14:00:23.872Z,25.20
2022-07-28T14:02:52.231Z,23.90
2022-07-28T14:05:19.229Z,25.20
2022-07-28T14:07:48.065Z,24.80
2022-07-28T14:10:16.213Z,24.40
2022-07-28T14:12:44.966Z,22.30
2022-07-28T14:15:12.929Z,22.50
2022-07-28T14:17:45.619Z,24.60
2022-07-28T14:20:15.844Z,23.50
2022-07-28T14:22:43.661Z,23.40
2022-07-28T14:25:10.856Z,23.80
2022-07-28T14:27:37.911Z,22.60
2022-07-28T14:30:06.249Z,22.80
2022-07-28T14:32:33.322Z,22.70
2022-07-28T14:35:02.278Z,22.80
2022-07-28T14:37:47.156Z,23.70
2022-07-28T14:40:17.812Z,22.60
2022-07-28T14:42:44.834Z,22.50
2022-07-28T14:45:12.156Z,23.00
2022-07-28T14:47:44.154Z,22.70
2022-07-28T14:50:12.195Z,22.90
2022-07-28T14:52:40.292Z,22.80
2022-07-28T14:55:07.870Z,22.20
2022-07-28T14:57:52.187Z,22.00
2022-07-28T15:00:22.521Z,21.70
2022-07-28T15:02:49.353Z,21.00
2022-07-28T15:05:16.127Z,21.40
2022-07-28T15:07:44.207Z,21.50
2022-07-28T15:10:11.316Z,21.10
2022-07-28T15:12:38.098Z,21.40
2022-07-28T15:15:05.929Z,21.50
2022-07-28T15:17:33.070Z,21.30
2022-07-28T15:19:59.820Z,22.30
2022-07-28T15:22:26.758Z,22.90
2022-07-28T15:24:54.869Z,22.50
2022-07-28T15:27:21.629Z,22.20
2022-07-28T15:29:49.730Z,21.70
2022-07-28T15:32:19.415Z,21.70
2022-07-28T15:34:52.390Z,22.90
2022-07-28T15:37:19.185Z,22.70
2022-07-28T15:39:45.910Z,21.80
2022-07-28T15:42:14.080Z,22.50
2022-07-28T15:44:40.840Z,21.60
2022-07-28T15:47:07.641Z,21.30
2022-07-28T15:49:36.049Z,21.50
2022-07-28T15:52:02.938Z,21.20
2022-07-28T15:54:29.794Z,21.40
2022-07-28T15:56:56.533Z,21.50
2022-07-28T15:59:24.769Z,21.60
2022-07-28T16:01:51.591Z,21.80
2022-07-28T16:04:18.856Z,21.50
2022-07-28T16:06:45.739Z,21.40
2022-07-28T16:09:12.475Z,22.10
2022-07-28T16:11:39.890Z,22.60
2022-07-28T16:14:06.700Z,22.20
2022-07-28T16:16:34.842Z,23.20
2022-07-28T16:19:01.621Z,22.60
2022-07-28T16:21:28.351Z,22.00
2022-07-28T16:23:55.161Z,22.30
2022-07-28T16:26:21.947Z,21.80
2022-07-28T16:28:48.671Z,23.00
2022-07-28T16:31:15.585Z,22.50
2022-07-28T16:33:43.678Z,22.60
2022-07-28T16:36:10.408Z,22.60
2022-07-28T16:38:37.172Z,22.60
2022-07-28T16:41:03.939Z,22.80
2022-07-28T16:43:31.469Z,23.00
2022-07-28T16:45:58.278Z,22.70
2022-07-28T16:48:25.184Z,23.00
2022-07-28T16:50:53.278Z,23.60
2022-07-28T16:53:20.035Z,23.40
2022-07-28T16:55:46.762Z,23.20
2022-07-28T16:58:13.596Z,23.10
2022-07-28T17:00:40.503Z,22.90
2022-07-28T17:03:07.269Z,23.90
2022-07-28T17:05:37.859Z,23.20
2022-07-28T17:08:06.098Z,22.30
2022-07-28T17:10:32.812Z,22.40
2022-07-28T17:12:59.648Z,22.60
2022-07-28T17:15:26.436Z,22.80
2022-07-28T17:17:54.022Z,23.10
2022-07-28T17:20:20.816Z,23.20
2022-07-28T17:22:47.569Z,23.50
2022-07-28T17:25:43.914Z,23.50
2022-07-28T17:28:03.353Z,23.60
2022-07-28T17:30:30.554Z,23.60
2022-07-28T17:32:57.331Z,23.80
2022-07-28T17:35:31.576Z,23.70
2022-07-28T17:38:02.160Z,23.60
2022-07-28T17:40:30.254Z,23.70
2022-07-28T17:42:57.000Z,23.80
2022-07-28T17:45:23.720Z,23.80
2022-07-28T17:47:50.479Z,24.10
2022-07-28T17:50:17.186Z,24.30
2022-07-28T17:52:45.190Z,24.60
2022-07-28T17:55:13.149Z,24.80
2022-07-28T17:57:42.649Z,24.80
2022-07-28T18:00:10.360Z,24.70
2022-07-28T18:02:37.153Z,24.70
2022-07-28T18:05:04.062Z,24.80
2022-07-28T18:07:30.784Z,24.70
2022-07-28T18:10:16.388Z,24.60
2022-07-28T18:12:46.266Z,24.80
2022-07-28T18:15:13.443Z,24.80
2022-07-28T18:17:54.524Z,24.90
2022-07-28T18:20:23.672Z,24.80
2022-07-28T18:22:50.592Z,24.80
2022-07-28T18:25:17.625Z,25.10
2022-07-28T18:27:46.465Z,25.00
2022-07-28T18:30:13.662Z,25.00
2022-07-28T18:32:40.377Z,25.20
2022-07-28T18:35:07.843Z,25.30
2022-07-28T18:37:34.612Z,25.30
2022-07-28T18:40:01.311Z,25.40
2022-07-28T18:42:30.744Z,25.50
2022-07-28T18:44:58.790Z,25.70
2022-07-28T18:47:25.606Z,25.80
2022-07-28T18:49:52.362Z,25.90
2022-07-28T18:52:19.512Z,25.90
2022-07-28T18:54:46.251Z,26.10
2022-07-28T18:57:12.947Z,26.10
2022-07-28T18:59:44.631Z,26.10
2022-07-28T19:02:14.865Z,26.20
2022-07-28T19:04:41.952Z,26.50
2022-07-28T19:07:08.841Z,26.40
2022-07-28T19:09:36.877Z,26.40
2022-07-28T19:12:04.560Z,26.60
2022-07-28T19:14:31.445Z,26.60
2022-07-28T19:16:58.572Z,26.70
2022-07-28T19:19:26.624Z,27.20
2022-07-28T19:21:53.380Z,26.90
2022-07-28T19:24:20.669Z,26.90
2022-07-28T19:26:49.025Z,27.00
2022-07-28T19:29:15.907Z,27.10
2022-07-28T19:31:42.748Z,27.10
2022-07-28T19:34:10.442Z,27.40
2022-07-28T19:36:39.043Z,27.50
2022-07-28T19:39:05.860Z,27.60
2022-07-28T19:41:32.593Z,27.60
2022-07-28T19:43:59.413Z,28.20
2022-07-28T19:46:26.528Z,27.90
2022-07-28T19:48:53.530Z,27.90
2022-07-28T19:51:20.251Z,27.90
2022-07-28T19:53:48.319Z,28.00
2022-07-28T19:56:15.165Z,28.10
2022-07-28T19:58:41.875Z,28.30
2022-07-28T20:01:08.704Z,28.30
2022-07-28T20:04:04.121Z,28.20
2022-07-28T20:06:25.132Z,28.40
2022-07-28T20:08:53.871Z,28.50
2022-07-28T20:11:20.698Z,28.50
2022-07-28T20:13:47.436Z,28.60
2022-07-28T20:16:14.203Z,28.60
2022-07-28T20:18:41.157Z,28.70
2022-07-28T20:21:07.940Z,28.70
2022-07-28T20:23:34.696Z,28.80
2022-07-28T20:26:02.796Z,28.80
2022-07-28T20:28:29.539Z,29.00
2022-07-28T20:30:56.313Z,29.10
2022-07-28T20:33:23.119Z,29.10
2022-07-28T20:35:49.822Z,29.20
2022-07-28T20:38:20.036Z,29.30
2022-07-28T20:40:46.779Z,29.20
2022-07-28T20:43:14.886Z,29.30
2022-07-28T20:45:41.673Z,29.30
2022-07-28T20:48:08.467Z,29.50
2022-07-28T20:50:41.425Z,29.40
2022-07-28T20:53:09.862Z,29.60
2022-07-28T20:55:37.256Z,29.60
2022-07-28T20:58:04.015Z,29.70
2022-07-28T21:00:34.074Z,29.70
2022-07-28T21:03:00.865Z,29.80
2022-07-28T21:05:35.457Z,29.90
2022-07-28T21:08:06.252Z,29.80
2022-07-28T21:10:36.281Z,29.90
2022-07-28T21:13:03.102Z,30.00
2022-07-28T21:15:30.087Z,30.00
2022-07-28T21:17:58.146Z,30.00
2022-07-28T21:20:25.166Z,30.00
2022-07-28T21:22:52.347Z,30.00
2022-07-28T21:25:19.307Z,30.00
2022-07-28T21:27:46.147Z,30.20
2022-07-28T21:30:13.657Z,30.10
2022-07-28T21:32:40.454Z,30.20
2022-07-28T21:35:14.033Z,30.30
2022-07-28T21:37:41.197Z,30.30
2022-07-28T21:40:08.946Z,30.20
2022-07-28T21:42:35.756Z,31.20
2022-07-28T21:45:02.469Z,30.30
2022-07-28T21:47:29.609Z,30.30
2022-07-28T21:50:00.997Z,30.30
2022-07-28T21:52:29.047Z,30.30
2022-07-28T21:54:55.788Z,30.30
2022-07-28T21:57:25.208Z,30.40
2022-07-28T21:59:52.165Z,30.40
2022-07-28T22:02:18.924Z,30.40
2022-07-28T22:04:45.856Z,30.70
2022-07-28T22:07:12.648Z,30.20
2022-07-28T22:09:40.729Z,30.50
2022-07-28T22:12:08.865Z,30.20
2022-07-28T22:14:35.869Z,30.30
2022-07-28T22:17:02.835Z,30.60
2022-07-28T22:19:30.409Z,30.80
2022-07-28T22:21:57.672Z,30.70
2022-07-28T22:24:24.909Z,30.90
2022-07-28T22:26:52.996Z,30.90
2022-07-28T22:29:19.721Z,31.20
2022-07-28T22:31:46.608Z,30.80
2022-07-28T22:34:14.313Z,31.20
2022-07-28T22:36:41.964Z,30.90
2022-07-28T22:39:08.691Z,31.10
2022-07-28T22:41:35.575Z,31.10
2022-07-28T22:44:03.924Z,31.00
2022-07-28T22:46:33.703Z,31.20
2022-07-28T22:49:00.618Z,31.10
2022-07-28T22:51:27.462Z,31.20
2022-07-28T22:53:54.257Z,31.30
2022-07-28T22:56:21.005Z,31.20
2022-07-28T22:58:48.115Z,31.70
2022-07-28T23:01:16.238Z,32.00
2022-07-28T23:03:43.772Z,31.80
2022-07-28T23:06:13.010Z,31.90
2022-07-28T23:08:39.715Z,32.00
2022-07-28T23:11:06.475Z,31.60
2022-07-28T23:13:33.201Z,31.60
2022-07-28T23:16:00.173Z,31.70
2022-07-28T23:18:28.340Z,31.60
2022-07-28T23:20:55.045Z,32.20
2022-07-28T23:23:21.776Z,31.70
2022-07-28T23:25:48.487Z,32.30
2022-07-28T23:28:15.225Z,32.20
2022-07-28T23:30:41.959Z,32.30
2022-07-28T23:33:08.726Z,32.70
2022-07-28T23:35:56.837Z,32.70
2022-07-28T23:38:23.531Z,32.60
2022-07-28T23:40:50.265Z,32.60
2022-07-28T23:43:16.964Z,32.50
2022-07-28T23:45:43.693Z,32.40
2022-07-28T23:48:10.393Z,33.20
2022-07-28T23:50:37.145Z,33.10
2022-07-28T23:53:05.191Z,32.70
2022-07-28T23:55:31.969Z,33.00
2022-07-28T23:57:58.751Z,32.80
